Time;durP1;ratioP1;P1;durP2;ratioP2;P2;SDS_P1;SDS_P2;PMS_P1;PMS_P2;Temp;Humidity;BMP_temperature;BMP_pressure;BME280_temperature;BME280_humidity;BME280_pressure;Samples;Min_cycle;Max_cycle;Signal;HPM_P1;HPM_P2
2023/03/10 00:00:22;;;;;;;;;;;;;;;12.90;46.08;99256.34;5354245;32;34773;-73
2023/03/10 00:03:24;;;;;;;;;;;;;;;13.21;45.05;99243.78;5363788;32;36879;-61
2023/03/10 00:06:27;;;;;;;;;;;;;;;13.12;45.23;99228.53;5327652;32;35750;-61
2023/03/10 00:09:28;;;;;;;;;;;;;;;12.82;45.89;99242.00;5369563;32;36173;-61
2023/03/10 00:12:30;;;;;;;;;;;;;;;12.49;46.94;99232.69;5349437;32;36318;-62
2023/03/10 00:15:32;;;;;;;;;;;;;;;12.87;45.71;99242.50;5368239;32;36162;-73
2023/03/10 00:18:34;;;;;;;;;;;;;;;12.85;45.72;99242.62;5352315;32;36267;-63
2023/03/10 00:21:36;;;;;;;;;;;;;;;12.46;46.66;99239.03;5359798;32;34866;-62
2023/03/10 00:24:38;;;;;;;;;;;;;;;12.15;47.36;99234.03;5341601;32;39056;-61
2023/03/10 00:27:40;;;;;;;;;;;;;;;12.35;47.25;99235.38;5363972;32;35532;-61
2023/03/10 00:30:42;;;;;;;;;;;;;;;12.99;45.36;99234.62;5368624;32;35429;-73
2023/03/10 00:33:44;;;;;;;;;;;;;;;12.81;45.80;99237.63;5363320;32;35170;-60
2023/03/10 00:36:46;;;;;;;;;;;;;;;12.76;46.07;99235.34;5365380;32;35373;-68
2023/03/10 00:39:51;;;;;;;;;;;;;;;12.59;46.37;99233.78;5349308;32;35362;-60
2023/03/10 00:42:53;;;;;;;;;;;;;;;11.77;48.46;99231.16;5349133;32;34610;-73
2023/03/10 00:45:55;;;;;;;;;;;;;;;11.85;48.49;99221.88;5356482;32;36484;-73
2023/03/10 00:48:57;;;;;;;;;;;;;;;12.46;46.91;99223.22;5369426;32;35721;-73
2023/03/10 00:51:59;;;;;;;;;;;;;;;12.34;47.12;99221.38;5376157;32;35364;-72
2023/03/10 00:55:01;;;;;;;;;;;;;;;12.77;46.09;99210.66;5359281;32;36732;-60
2023/03/10 00:58:03;;;;;;;;;;;;;;;12.66;46.25;99208.72;5386386;32;35478;-72
2023/03/10 01:01:09;;;;;;;;;;;;;;;12.95;45.57;99201.50;5354857;32;35500;-62
2023/03/10 01:04:12;;;;;;;;;;;;;;;12.91;45.61;99196.53;5340906;32;44720;-61
2023/03/10 01:07:14;;;;;;;;;;;;;;;11.81;48.35;99198.47;5357075;32;35454;-74
2023/03/10 01:10:17;;;;;;;;;;;;;;;12.19;47.45;99196.88;5361317;32;35585;-60
2023/03/10 01:13:20;;;;;;;;;;;;;;;11.90;48.10;99195.25;5374308;32;35424;-73
2023/03/10 01:16:22;;;;;;;;;;;;;;;12.19;47.51;99193.37;5345618;32;36037;-61
2023/03/10 01:19:24;;;;;;;;;;;;;;;11.93;48.15;99197.69;5368628;32;35643;-73
2023/03/10 01:22:26;;;;;;;;;;;;;;;11.82;48.68;99202.78;5348138;32;35424;-74
2023/03/10 01:25:28;;;;;;;;;;;;;;;12.32;47.11;99182.91;5358331;32;35217;-69
2023/03/10 01:28:30;;;;;;;;;;;;;;;12.56;46.79;99185.69;5365501;32;36750;-61
2023/03/10 01:31:32;;;;;;;;;;;;;;;12.23;47.65;99183.47;5341648;32;35215;-73
2023/03/10 01:34:34;;;;;;;;;;;;;;;12.58;46.54;99179.41;5364863;32;36023;-73
2023/03/10 01:37:36;;;;;;;;;;;;;;;12.04;47.25;99174.12;5357906;32;35188;-61
2023/03/10 01:40:38;;;;;;;;;;;;;;;11.62;49.04;99175.06;5366590;32;34774;-73
2023/03/10 01:43:41;;;;;;;;;;;;;;;12.03;48.08;99166.34;5348097;32;45583;-72
2023/03/10 01:46:44;;;;;;;;;;;;;;;11.89;47.98;99140.91;5346875;32;36388;-61
2023/03/10 01:49:46;;;;;;;;;;;;;;;12.62;46.37;99165.06;5368363;32;36228;-61
2023/03/10 01:52:51;;;;;;;;;;;;;;;12.19;47.12;99161.78;5346101;32;36012;-62
2023/03/10 01:55:58;;;;;;;;;;;;;;;11.62;48.87;99167.16;5355839;32;35241;-61
2023/03/10 01:59:01;;;;;;;;;;;;;;;12.26;46.88;99146.41;5339847;32;35485;-73
2023/03/10 02:02:03;;;;;;;;;;;;;;;11.75;48.32;99149.66;5351402;32;35619;-74
2023/03/10 02:05:05;;;;;;;;;;;;;;;12.19;47.08;99151.25;5330061;32;35426;-75
2023/03/10 02:08:07;;;;;;;;;;;;;;;12.21;46.90;99141.44;5323040;32;34709;-72
2023/03/10 02:11:09;;;;;;;;;;;;;;;12.14;47.19;99141.00;5363467;32;44575;-72
2023/03/10 02:14:11;;;;;;;;;;;;;;;11.98;47.42;99139.44;5343133;32;34591;-61
2023/03/10 02:17:15;;;;;;;;;;;;;;;12.03;47.23;99134.75;5359251;32;35241;-61
2023/03/10 02:20:24;;;;;;;;;;;;;;;11.87;47.80;99130.47;5350888;32;36574;-60
2023/03/10 02:23:44;;;;;;;;;;;;;;;11.59;48.50;99126.09;5350516;32;36239;-61
2023/03/10 02:27:10;;;;;;;;;;;;;;;11.37;48.92;99125.75;5372179;32;35603;-72
2023/03/10 02:30:14;;;;;;;;;;;;;;;11.72;48.17;99122.66;5349571;32;44881;-72
2023/03/10 02:33:15;;;;;;;;;;;;;;;11.47;49.20;99115.50;5359778;32;35538;-72
2023/03/10 02:36:21;;;;;;;;;;;;;;;11.83;47.97;99117.59;5343503;32;36408;-73
2023/03/10 02:39:23;;;;;;;;;;;;;;;12.18;47.09;99118.78;5361424;32;36056;-72
2023/03/10 02:42:26;;;;;;;;;;;;;;;12.08;47.29;99114.22;5368678;32;36415;-61
2023/03/10 02:45:31;;;;;;;;;;;;;;;10.61;50.82;99098.84;5345384;32;35584;-61
2023/03/10 02:48:35;;;;;;;;;;;;;;;11.62;48.80;99111.88;5376346;32;34647;-61
2023/03/10 02:51:38;;;;;;;;;;;;;;;11.90;47.89;99090.78;5366948;32;34083;-73
2023/03/10 02:54:40;;;;;;;;;;;;;;;12.08;47.60;99098.41;5366746;32;44865;-73
2023/03/10 02:57:42;;;;;;;;;;;;;;;11.97;47.81;99099.09;5350320;32;35408;-62
2023/03/10 03:00:45;;;;;;;;;;;;;;;11.73;48.46;99093.63;5376461;32;37353;-71
2023/03/10 03:03:47;;;;;;;;;;;;;;;11.58;49.05;99099.84;5366554;32;35291;-72
2023/03/10 03:06:49;;;;;;;;;;;;;;;11.09;50.72;99097.69;5341702;32;36152;-70
2023/03/10 03:09:51;;;;;;;;;;;;;;;11.30;50.17;99074.47;5374724;32;36038;-67
2023/03/10 03:12:55;;;;;;;;;;;;;;;11.35;50.65;99088.16;5352048;32;36615;-60
2023/03/10 03:15:56;;;;;;;;;;;;;;;11.29;50.85;99081.50;5352055;32;36442;-60
2023/03/10 03:18:58;;;;;;;;;;;;;;;11.01;52.02;99079.75;5359823;32;35512;-75
2023/03/10 03:22:00;;;;;;;;;;;;;;;11.47;51.57;99073.41;5363674;32;37035;-61
2023/03/10 03:25:02;;;;;;;;;;;;;;;11.56;51.87;99070.19;5364447;32;36965;-72
2023/03/10 03:28:04;;;;;;;;;;;;;;;11.59;52.04;99062.94;5352842;32;35377;-73
2023/03/10 03:31:11;;;;;;;;;;;;;;;11.30;53.07;99066.56;5368636;32;36405;-73
2023/03/10 03:34:14;;;;;;;;;;;;;;;11.46;52.94;99043.59;5340838;32;46706;-73
2023/03/10 03:37:16;;;;;;;;;;;;;;;11.27;54.01;99046.56;5361340;32;34722;-60
2023/03/10 03:40:18;;;;;;;;;;;;;;;10.91;55.35;99049.69;5368936;32;35552;-60
2023/03/10 03:43:20;;;;;;;;;;;;;;;11.28;54.58;99052.69;5340073;32;37575;-60
2023/03/10 03:46:22;;;;;;;;;;;;;;;11.14;55.24;99035.09;5373008;32;36021;-61
2023/03/10 03:49:24;;;;;;;;;;;;;;;11.44;54.94;99023.59;5347631;32;35462;-60
2023/03/10 03:52:26;;;;;;;;;;;;;;;11.28;55.86;99029.00;5367845;32;37046;-61
2023/03/10 03:55:28;;;;;;;;;;;;;;;11.47;55.50;99026.06;5368121;32;35406;-72
2023/03/10 03:58:30;;;;;;;;;;;;;;;11.32;56.14;99018.16;5386494;32;36168;-61
2023/03/10 04:01:31;;;;;;;;;;;;;;;11.42;56.19;99010.56;5359511;32;35645;-73
2023/03/10 04:04:33;;;;;;;;;;;;;;;11.41;56.62;99002.75;5346289;32;36258;-61
2023/03/10 04:07:37;;;;;;;;;;;;;;;11.03;57.87;99001.63;5348750;32;37186;-61
2023/03/10 04:10:39;;;;;;;;;;;;;;;11.04;58.02;98991.94;5351635;32;45042;-61
2023/03/10 04:13:42;;;;;;;;;;;;;;;10.99;58.56;98994.84;5376003;32;38031;-61
2023/03/10 04:16:44;;;;;;;;;;;;;;;10.85;59.09;98979.13;5353333;32;35175;-61
2023/03/10 04:19:46;;;;;;;;;;;;;;;11.18;58.32;98989.28;5369731;32;35574;-60
2023/03/10 04:23:01;;;;;;;;;;;;;;;10.93;59.11;98984.72;5351336;32;36056;-61
2023/03/10 04:26:07;;;;;;;;;;;;;;;10.77;60.02;98989.25;5341549;32;35440;-73
2023/03/10 04:29:09;;;;;;;;;;;;;;;10.96;59.32;98978.44;5381896;32;44557;-73
2023/03/10 04:32:11;;;;;;;;;;;;;;;10.64;60.39;98981.28;5343592;32;35733;-73
2023/03/10 04:35:13;;;;;;;;;;;;;;;10.78;60.18;98967.28;5363490;32;35898;-61
2023/03/10 04:38:15;;;;;;;;;;;;;;;11.02;59.42;98962.28;5365432;32;36080;-73
2023/03/10 04:41:17;;;;;;;;;;;;;;;10.64;60.65;98962.06;5356636;32;35261;-73
2023/03/10 04:44:19;;;;;;;;;;;;;;;10.01;63.64;98964.03;5355182;32;34787;-62
2023/03/10 04:47:32;;;;;;;;;;;;;;;11.06;59.69;98961.12;5349830;32;36194;-67
2023/03/10 04:50:33;;;;;;;;;;;;;;;10.73;60.31;98956.22;5373359;32;35485;-69
2023/03/10 04:53:36;;;;;;;;;;;;;;;10.48;60.71;98955.09;5357070;32;35942;-61
2023/03/10 04:56:38;;;;;;;;;;;;;;;10.24;61.47;98957.47;5339622;32;847165;-61
2023/03/10 04:59:39;;;;;;;;;;;;;;;10.28;60.96;98964.19;5355343;32;44567;-62
2023/03/10 05:02:42;;;;;;;;;;;;;;;10.17;61.46;98960.50;5362950;32;35946;-60
2023/03/10 05:05:44;;;;;;;;;;;;;;;9.47;63.52;98974.19;5350974;32;35224;-59
2023/03/10 05:08:46;;;;;;;;;;;;;;;9.20;64.35;98958.22;5358159;32;35206;-68
2023/03/10 05:11:47;;;;;;;;;;;;;;;9.93;63.35;98958.41;5366807;32;35386;-67
2023/03/10 05:14:49;;;;;;;;;;;;;;;10.03;62.30;98958.69;5354488;32;35173;-61
2023/03/10 05:17:51;;;;;;;;;;;;;;;10.46;60.81;98940.38;5385249;32;35731;-60
2023/03/10 05:20:54;;;;;;;;;;;;;;;9.06;64.93;98949.44;5345325;32;35820;-60
2023/03/10 05:23:56;;;;;;;;;;;;;;;9.53;64.33;98938.03;5354131;32;37052;-73
2023/03/10 05:26:58;;;;;;;;;;;;;;;9.84;63.42;98932.69;5377919;32;36312;-68
2023/03/10 05:30:00;;;;;;;;;;;;;;;9.44;64.31;98937.62;5345996;32;36657;-61
2023/03/10 05:33:02;;;;;;;;;;;;;;;10.16;62.01;98930.78;5351988;32;35857;-61
2023/03/10 05:36:05;;;;;;;;;;;;;;;10.04;62.79;98923.63;5365687;32;37018;-61
2023/03/10 05:39:08;;;;;;;;;;;;;;;10.47;61.15;98921.91;5370012;32;35036;-74
2023/03/10 05:42:11;;;;;;;;;;;;;;;10.15;62.50;98913.34;5348974;32;45081;-72
2023/03/10 05:45:13;;;;;;;;;;;;;;;10.90;59.71;98911.34;5359809;32;34642;-74
2023/03/10 05:48:15;;;;;;;;;;;;;;;10.52;60.73;98916.38;5352338;32;36153;-61
2023/03/10 05:51:17;;;;;;;;;;;;;;;10.32;61.72;98917.59;5349463;32;35285;-61
2023/03/10 05:54:19;;;;;;;;;;;;;;;10.26;62.66;98917.97;5365742;32;35529;-61
2023/03/10 05:57:21;;;;;;;;;;;;;;;10.35;62.23;98916.56;5354347;32;35964;-73
2023/03/10 06:00:23;;;;;;;;;;;;;;;11.29;60.35;98907.91;5380780;32;35589;-73
2023/03/10 06:03:27;;;;;;;;;;;;;;;11.38;59.77;98881.00;5356751;32;35877;-61
2023/03/10 06:06:29;;;;;;;;;;;;;;;12.33;57.45;98905.31;5345967;32;35708;-61
2023/03/10 06:09:31;;;;;;;;;;;;;;;13.04;54.63;98893.25;5366709;32;35681;-61
2023/03/10 06:12:33;;;;;;;;;;;;;;;13.26;53.09;98891.56;5362003;32;35301;-62
2023/03/10 06:15:35;;;;;;;;;;;;;;;13.44;52.99;98893.81;5369067;32;36530;-62
2023/03/10 06:18:37;;;;;;;;;;;;;;;13.98;51.77;98886.16;5335280;32;35957;-74
2023/03/10 06:21:39;;;;;;;;;;;;;;;13.67;52.06;98895.56;5351286;32;44588;-72
2023/03/10 06:24:41;;;;;;;;;;;;;;;15.05;47.94;98896.22;5356336;32;35590;-62
2023/03/10 06:27:43;;;;;;;;;;;;;;;14.48;50.08;98894.63;5363890;32;35862;-72
2023/03/10 06:30:45;;;;;;;;;;;;;;;15.60;47.03;98882.91;5370483;32;35563;-63
2023/03/10 06:33:48;;;;;;;;;;;;;;;13.94;50.78;98892.62;5346847;32;35317;-73
2023/03/10 06:36:50;;;;;;;;;;;;;;;15.55;46.65;98883.28;5374535;32;34754;-63
2023/03/10 06:39:51;;;;;;;;;;;;;;;14.49;48.75;98891.03;5356332;32;35735;-61
2023/03/10 06:42:53;;;;;;;;;;;;;;;14.12;51.13;98879.81;5362017;32;35814;-62
2023/03/10 06:45:55;;;;;;;;;;;;;;;14.03;50.95;98878.72;5351286;32;35513;-63
2023/03/10 06:48:57;;;;;;;;;;;;;;;14.11;50.71;98888.72;5376133;32;34608;-63
2023/03/10 06:51:59;;;;;;;;;;;;;;;14.31;49.96;98884.50;5365408;32;36087;-61
2023/03/10 06:55:01;;;;;;;;;;;;;;;14.56;50.45;98873.72;5350013;32;36183;-63
2023/03/10 06:58:03;;;;;;;;;;;;;;;14.85;49.54;98867.91;5377009;32;38557;-66
2023/03/10 07:01:06;;;;;;;;;;;;;;;16.50;45.08;98869.91;5355005;32;36286;-61
2023/03/10 07:04:09;;;;;;;;;;;;;;;15.57;46.73;98867.25;5371371;32;37183;-71
2023/03/10 07:07:11;;;;;;;;;;;;;;;15.62;47.45;98867.75;5351421;32;33487;-63
2023/03/10 07:10:15;;;;;;;;;;;;;;;16.33;45.52;98860.75;5356635;32;35227;-61
2023/03/10 07:13:17;;;;;;;;;;;;;;;15.79;45.87;98864.53;5386461;32;37217;-63
2023/03/10 07:16:20;;;;;;;;;;;;;;;16.66;44.21;98859.63;5365005;32;36120;-74
2023/03/10 07:19:22;;;;;;;;;;;;;;;17.06;42.83;98869.34;5384750;32;37316;-62
2023/03/10 07:22:24;;;;;;;;;;;;;;;15.78;46.36;98872.59;5354558;32;36726;-74
2023/03/10 07:25:26;;;;;;;;;;;;;;;18.25;40.85;98861.00;5376808;32;35988;-73
2023/03/10 07:28:28;;;;;;;;;;;;;;;17.06;43.70;98869.34;5375022;32;35386;-63
2023/03/10 07:31:31;;;;;;;;;;;;;;;16.85;44.44;98868.62;5359525;32;35249;-63
2023/03/10 07:34:33;;;;;;;;;;;;;;;16.08;45.97;98867.34;5383466;32;35643;-75
2023/03/10 07:37:39;;;;;;;;;;;;;;;16.15;46.43;98867.66;5350362;32;37436;-64
2023/03/10 07:40:41;;;;;;;;;;;;;;;16.93;44.43;98860.81;5381613;32;44699;-61
2023/03/10 07:43:42;;;;;;;;;;;;;;;16.49;45.22;98857.63;5378213;32;34768;-74
2023/03/10 07:46:44;;;;;;;;;;;;;;;19.16;39.62;98850.44;5357043;32;34825;-72
2023/03/10 07:49:46;;;;;;;;;;;;;;;18.37;40.01;98859.00;5366862;32;36205;-62
2023/03/10 07:52:48;;;;;;;;;;;;;;;17.10;43.50;98862.81;5371198;32;36099;-73
2023/03/10 07:55:50;;;;;;;;;;;;;;;17.06;44.29;98843.66;5377402;32;35363;-74
2023/03/10 07:58:52;;;;;;;;;;;;;;;17.13;43.56;98843.97;5360970;32;35497;-74
2023/03/10 08:01:54;;;;;;;;;;;;;;;18.37;41.40;98843.88;5382786;32;36149;-74
2023/03/10 08:04:56;;;;;;;;;;;;;;;17.37;43.11;98837.38;5338887;32;34687;-61
2023/03/10 08:07:58;;;;;;;;;;;;;;;16.40;45.04;98823.94;5378700;32;35506;-72
2023/03/10 08:11:01;;;;;;;;;;;;;;;16.89;44.48;98830.25;5360631;32;35757;-61
2023/03/10 08:14:03;;;;;;;;;;;;;;;17.13;44.16;98821.84;5361811;32;35473;-61
2023/03/10 08:17:05;;;;;;;;;;;;;;;16.26;45.79;98833.09;5401290;32;34878;-61
2023/03/10 08:20:07;;;;;;;;;;;;;;;15.97;47.66;98828.53;5360580;32;35356;-75
2023/03/10 08:23:09;;;;;;;;;;;;;;;16.88;45.31;98816.12;5365783;32;45046;-74
2023/03/10 08:26:12;;;;;;;;;;;;;;;15.71;48.80;98808.69;5360840;32;35561;-74
2023/03/10 08:29:14;;;;;;;;;;;;;;;14.96;50.31;98800.91;5366719;32;36037;-62
2023/03/10 08:32:17;;;;;;;;;;;;;;;15.34;49.65;98805.66;5366502;32;35966;-74
2023/03/10 08:35:19;;;;;;;;;;;;;;;16.48;46.71;98793.12;5367593;32;35511;-70
2023/03/10 08:38:21;;;;;;;;;;;;;;;15.74;48.39;98789.06;5378420;32;36152;-73
2023/03/10 08:41:30;;;;;;;;;;;;;;;15.70;48.32;98802.56;5358269;32;37378;-61
2023/03/10 08:44:32;;;;;;;;;;;;;;;15.41;49.66;98788.28;5380088;32;35443;-62
2023/03/10 08:47:34;;;;;;;;;;;;;;;16.69;46.41;98786.91;5363574;32;37343;-63
2023/03/10 08:50:36;;;;;;;;;;;;;;;17.03;45.65;98768.78;5368139;32;35476;-73
2023/03/10 08:53:38;;;;;;;;;;;;;;;16.09;47.92;98778.91;5373496;32;43051;-73
2023/03/10 08:56:40;;;;;;;;;;;;;;;16.41;47.52;98775.25;5376311;32;35399;-61
2023/03/10 08:59:42;;;;;;;;;;;;;;;16.94;45.66;98762.50;5371096;32;35935;-73
2023/03/10 09:02:44;;;;;;;;;;;;;;;16.95;45.94;98752.72;5371600;32;35757;-62
2023/03/10 09:05:46;;;;;;;;;;;;;;;16.32;47.86;98768.13;5364122;32;35503;-72
2023/03/10 09:08:49;;;;;;;;;;;;;;;17.39;45.09;98747.78;5359752;32;34681;-62
2023/03/10 09:11:51;;;;;;;;;;;;;;;17.41;44.84;98751.16;5380251;32;35440;-62
2023/03/10 09:14:53;;;;;;;;;;;;;;;17.11;45.39;98747.69;5372895;32;35520;-62
2023/03/10 09:17:55;;;;;;;;;;;;;;;17.57;44.58;98749.56;5355833;32;34968;-62
2023/03/10 09:20:57;;;;;;;;;;;;;;;18.34;42.81;98750.25;5374327;32;35946;-63
2023/03/10 09:23:59;;;;;;;;;;;;;;;16.92;46.29;98747.69;5360112;32;36100;-69
2023/03/10 09:27:01;;;;;;;;;;;;;;;18.16;43.66;98747.53;5385532;32;36017;-72
2023/03/10 09:30:03;;;;;;;;;;;;;;;17.85;44.50;98742.53;5368647;32;34737;-73
2023/03/10 09:33:12;;;;;;;;;;;;;;;18.30;43.39;98744.41;5377164;32;34986;-62
2023/03/10 09:36:15;;;;;;;;;;;;;;;16.66;48.20;98742.91;5374452;32;44664;-73
2023/03/10 09:39:17;;;;;;;;;;;;;;;16.03;50.55;98739.69;5360439;32;35730;-62
2023/03/10 09:42:34;;;;;;;;;;;;;;;15.83;51.44;98732.66;5369384;32;36035;-62
2023/03/10 09:45:51;;;;;;;;;;;;;;;15.64;51.75;98723.62;5355916;32;43297;-62
2023/03/10 09:48:59;;;;;;;;;;;;;;;16.12;50.67;98720.34;5353039;32;36552;-61
2023/03/10 09:52:02;;;;;;;;;;;;;;;17.25;48.04;98704.75;5390934;32;36863;-73
2023/03/10 09:55:23;;;;;;;;;;;;;;;17.69;47.10;98697.09;5352194;32;35521;-61
2023/03/10 09:58:28;;;;;;;;;;;;;;;17.94;45.81;98698.28;5387609;32;36083;-73
2023/03/10 10:01:30;;;;;;;;;;;;;;;18.90;43.94;98686.16;5357661;32;35389;-74
2023/03/10 10:04:37;;;;;;;;;;;;;;;18.55;44.97;98688.81;5360487;32;35271;-62
2023/03/10 10:07:43;;;;;;;;;;;;;;;19.86;42.08;98683.44;5359802;32;47284;-63
2023/03/10 10:10:47;;;;;;;;;;;;;;;19.81;42.16;98680.41;5355258;32;35993;-75
2023/03/10 10:13:49;;;;;;;;;;;;;;;18.92;43.88;98672.69;5378319;32;35563;-73
2023/03/10 10:16:57;;;;;;;;;;;;;;;19.08;43.85;98664.81;5346608;32;34748;-75
2023/03/10 10:20:05;;;;;;;;;;;;;;;18.97;44.08;98654.41;5364278;32;36097;-73
2023/03/10 10:23:26;;;;;;;;;;;;;;;19.69;42.49;98642.53;5356658;32;37083;-62
2023/03/10 10:26:28;;;;;;;;;;;;;;;20.63;40.36;98629.97;5365313;32;36216;-71
2023/03/10 10:29:30;;;;;;;;;;;;;;;20.33;40.80;98623.41;5380276;32;35495;-72
2023/03/10 10:32:32;;;;;;;;;;;;;;;22.34;35.69;98618.75;5362242;32;37391;-61
2023/03/10 10:35:35;;;;;;;;;;;;;;;21.19;37.19;98613.06;5377026;32;35558;-62
2023/03/10 10:38:37;;;;;;;;;;;;;;;19.98;40.09;98610.19;5353336;32;35329;-63
2023/03/10 10:41:39;;;;;;;;;;;;;;;20.25;39.76;98611.72;5385742;32;45334;-73
2023/03/10 10:44:41;;;;;;;;;;;;;;;19.83;40.76;98602.94;5360570;32;35301;-62
2023/03/10 10:47:48;;;;;;;;;;;;;;;20.27;39.75;98603.53;5358663;32;34729;-74
2023/03/10 10:50:53;;;;;;;;;;;;;;;18.99;42.46;98606.34;5379154;32;35675;-73
2023/03/10 10:53:59;;;;;;;;;;;;;;;20.06;40.50;98596.03;5370559;32;34940;-63
2023/03/10 10:57:01;;;;;;;;;;;;;;;20.07;40.53;98594.19;5379251;32;35430;-72
2023/03/10 11:00:23;;;;;;;;;;;;;;;22.39;35.90;98581.59;5362083;32;34711;-74
2023/03/10 11:03:35;;;;;;;;;;;;;;;21.88;36.85;98582.06;5366418;32;35939;-63
2023/03/10 11:06:37;;;;;;;;;;;;;;;21.01;38.40;98586.56;5371477;32;35964;-73
2023/03/10 11:09:39;;;;;;;;;;;;;;;21.67;37.63;98576.50;5356420;32;45417;-63
2023/03/10 11:13:01;;;;;;;;;;;;;;;21.97;37.26;98566.00;5378908;32;34778;-74
2023/03/10 11:16:21;;;;;;;;;;;;;;;21.98;37.24;98557.78;5359338;32;35230;-62
2023/03/10 11:19:44;;;;;;;;;;;;;;;21.97;36.89;98544.59;5351186;32;35305;-73
2023/03/10 11:23:01;;;;;;;;;;;;;;;20.95;38.49;98543.66;5355591;32;45197;-62
2023/03/10 11:26:11;;;;;;;;;;;;;;;20.58;39.75;98537.06;5368868;32;35491;-62
2023/03/10 11:29:36;;;;;;;;;;;;;;;20.56;39.52;98533.72;5400236;32;44675;-72
2023/03/10 11:33:00;;;;;;;;;;;;;;;20.88;39.11;98524.84;5355699;32;44764;-75
2023/03/10 11:36:21;;;;;;;;;;;;;;;20.86;39.02;98523.31;5363588;32;35249;-61
2023/03/10 11:39:23;;;;;;;;;;;;;;;20.83;39.15;98511.16;5378710;32;35386;-62
2023/03/10 11:42:43;;;;;;;;;;;;;;;20.33;40.16;98493.50;5372691;32;36115;-63
2023/03/10 11:45:51;;;;;;;;;;;;;;;21.67;37.48;98492.78;5360993;32;44519;-63
2023/03/10 11:49:06;;;;;;;;;;;;;;;21.10;38.73;98491.19;5379143;32;35093;-62
2023/03/10 11:52:13;;;;;;;;;;;;;;;22.19;36.91;98473.41;5358050;32;35255;-62
2023/03/10 11:55:16;;;;;;;;;;;;;;;22.51;35.70;98472.25;5372373;32;44693;-74
2023/03/10 11:58:23;;;;;;;;;;;;;;;22.19;36.13;98460.84;5383943;32;36997;-74
2023/03/10 12:01:32;;;;;;;;;;;;;;;22.04;36.82;98458.09;5361476;32;35583;-61
2023/03/10 12:04:49;;;;;;;;;;;;;;;22.18;36.45;98451.16;5365178;32;36427;-63
2023/03/10 12:07:52;;;;;;;;;;;;;;;21.75;37.51;98444.63;5356998;32;35211;-68
2023/03/10 12:10:54;;;;;;;;;;;;;;;22.67;35.41;98443.50;5369277;32;36185;-63
2023/03/10 12:13:59;;;;;;;;;;;;;;;24.80;32.27;98438.47;5369368;32;34912;-63
2023/03/10 12:17:01;;;;;;;;;;;;;;;25.00;31.95;98414.41;5398997;32;35517;-62
2023/03/10 12:20:06;;;;;;;;;;;;;;;24.65;32.26;98405.53;5379492;32;36084;-68
2023/03/10 12:23:08;;;;;;;;;;;;;;;25.69;30.56;98405.31;5368656;32;44978;-64
2023/03/10 12:26:10;;;;;;;;;;;;;;;24.65;32.16;98408.22;5368928;32;36159;-62
2023/03/10 12:29:19;;;;;;;;;;;;;;;24.89;31.32;98396.16;5353565;32;34803;-62
2023/03/10 12:32:43;;;;;;;;;;;;;;;22.29;35.68;98399.06;5372541;32;36087;-64
2023/03/10 12:35:46;;;;;;;;;;;;;;;23.53;33.73;98384.78;5370322;32;44527;-64
2023/03/10 12:38:50;;;;;;;;;;;;;;;23.70;33.44;98380.00;5342523;32;34825;-62
2023/03/10 12:41:52;;;;;;;;;;;;;;;22.81;35.29;98364.16;5356369;32;36212;-75
2023/03/10 12:45:01;;;;;;;;;;;;;;;24.04;32.86;98365.88;5327798;32;36277;-62
2023/03/10 12:48:14;;;;;;;;;;;;;;;23.83;33.44;98349.78;5387018;32;36857;-73
2023/03/10 12:51:17;;;;;;;;;;;;;;;25.46;30.68;98343.84;5340370;32;44968;-74
2023/03/10 12:54:25;;;;;;;;;;;;;;;23.92;33.29;98354.00;5367105;32;35293;-70
2023/03/10 12:57:33;;;;;;;;;;;;;;;23.12;34.50;98328.25;5385791;32;35181;-72
2023/03/10 13:00:49;;;;;;;;;;;;;;;22.34;36.18;98351.16;5353261;32;35007;-63
2023/03/10 13:03:51;;;;;;;;;;;;;;;23.44;34.21;98332.28;5376214;32;35666;-63
2023/03/10 13:06:55;;;;;;;;;;;;;;;24.42;32.47;98323.41;5340555;32;35513;-71
2023/03/10 13:09:58;;;;;;;;;;;;;;;25.54;30.98;98319.44;5371009;32;36706;-63
2023/03/10 13:13:01;;;;;;;;;;;;;;;24.93;32.00;98308.75;5371120;32;37515;-62
2023/03/10 13:16:04;;;;;;;;;;;;;;;25.40;31.31;98313.22;5342661;32;35289;-62
2023/03/10 13:19:06;;;;;;;;;;;;;;;24.01;33.50;98304.53;5377988;32;36575;-74
2023/03/10 13:22:14;;;;;;;;;;;;;;;25.33;31.56;98305.16;5368168;32;34752;-62
2023/03/10 13:25:16;;;;;;;;;;;;;;;23.14;35.33;98308.31;5369007;32;44827;-69
2023/03/10 13:28:18;;;;;;;;;;;;;;;25.07;32.47;98297.84;5358163;32;35108;-69
2023/03/10 13:31:22;;;;;;;;;;;;;;;25.69;31.17;98297.69;5367069;32;35617;-63
2023/03/10 13:34:26;;;;;;;;;;;;;;;26.17;29.78;98298.31;5353556;32;35831;-63
2023/03/10 13:37:28;;;;;;;;;;;;;;;26.37;29.48;98288.31;5355751;32;35647;-62
2023/03/10 13:40:30;;;;;;;;;;;;;;;27.27;28.23;98280.25;5370399;32;35032;-73
2023/03/10 13:43:35;;;;;;;;;;;;;;;23.97;33.20;98295.22;5353731;32;36152;-72
2023/03/10 13:46:37;;;;;;;;;;;;;;;21.76;37.21;98291.19;5362349;32;34984;-73
2023/03/10 13:49:39;;;;;;;;;;;;;;;20.82;39.40;98285.22;5365258;32;45447;-62
2023/03/10 13:52:50;;;;;;;;;;;;;;;21.23;38.29;98269.75;5342875;32;35109;-73
2023/03/10 13:55:52;;;;;;;;;;;;;;;20.21;40.69;98282.31;5362651;32;36514;-71
2023/03/10 13:58:55;;;;;;;;;;;;;;;20.61;40.39;98283.19;5337004;32;36279;-61
2023/03/10 14:01:58;;;;;;;;;;;;;;;19.49;43.05;98276.94;5356850;32;36598;-61
2023/03/10 14:05:00;;;;;;;;;;;;;;;19.67;43.03;98278.63;5340725;32;35976;-73
2023/03/10 14:08:02;;;;;;;;;;;;;;;19.45;42.90;98259.62;5364955;32;35949;-62
2023/03/10 14:11:23;;;;;;;;;;;;;;;19.12;43.40;98279.25;5357196;32;35512;-62
2023/03/10 14:14:29;;;;;;;;;;;;;;;18.90;44.24;98273.56;5352867;32;35195;-62
2023/03/10 14:17:32;;;;;;;;;;;;;;;18.56;45.12;98272.81;5372961;32;37236;-72
2023/03/10 14:20:38;;;;;;;;;;;;;;;18.85;44.69;98273.22;5352794;32;35341;-73
2023/03/10 14:23:40;;;;;;;;;;;;;;;18.43;45.57;98272.44;5390105;32;44841;-73
2023/03/10 14:26:42;;;;;;;;;;;;;;;18.90;44.40;98270.09;5370695;32;35634;-73
2023/03/10 14:29:48;;;;;;;;;;;;;;;18.83;44.64;98275.22;5374718;32;34247;-63
2023/03/10 14:32:51;;;;;;;;;;;;;;;19.20;43.66;98271.28;5364093;32;35382;-62
2023/03/10 14:35:53;;;;;;;;;;;;;;;18.88;44.40;98277.41;5356001;32;36722;-61
2023/03/10 14:38:55;;;;;;;;;;;;;;;18.20;45.90;98248.25;5363559;32;34500;-73
2023/03/10 14:41:57;;;;;;;;;;;;;;;18.19;46.60;98265.19;5339565;32;37136;-61
2023/03/10 14:45:02;;;;;;;;;;;;;;;18.45;46.11;98260.63;5371869;32;36330;-61
2023/03/10 14:48:16;;;;;;;;;;;;;;;18.09;46.77;98252.84;5342009;32;34854;-61
2023/03/10 14:51:19;;;;;;;;;;;;;;;18.72;45.61;98251.59;5360491;32;35399;-62
2023/03/10 14:54:36;;;;;;;;;;;;;;;18.34;46.18;98250.28;5363005;32;35253;-61
2023/03/10 14:57:38;;;;;;;;;;;;;;;18.44;46.07;98240.34;5346893;32;34834;-61
2023/03/10 15:00:40;;;;;;;;;;;;;;;18.74;45.43;98240.75;5374192;32;45021;-73
2023/03/10 15:03:44;;;;;;;;;;;;;;;18.58;45.95;98234.41;5350340;32;34192;-73
2023/03/10 15:06:46;;;;;;;;;;;;;;;18.23;46.44;98224.84;5358940;32;36144;-68
2023/03/10 15:09:50;;;;;;;;;;;;;;;17.71;48.26;98235.56;5361744;32;34698;-62
2023/03/10 15:13:12;;;;;;;;;;;;;;;17.74;48.23;98234.41;5354680;32;44772;-61
2023/03/10 15:16:14;;;;;;;;;;;;;;;17.60;48.94;98220.69;5387030;32;35890;-61
2023/03/10 15:19:17;;;;;;;;;;;;;;;17.58;49.20;98222.66;5358901;32;34773;-67
2023/03/10 15:22:19;;;;;;;;;;;;;;;17.10;50.79;98224.97;5362249;32;37017;-73
2023/03/10 15:25:21;;;;;;;;;;;;;;;17.72;49.07;98205.34;5365945;32;36461;-68
2023/03/10 15:28:23;;;;;;;;;;;;;;;16.94;51.94;98226.50;5347997;32;35915;-73
2023/03/10 15:31:25;;;;;;;;;;;;;;;16.81;52.85;98222.53;5390102;32;35647;-61
2023/03/10 15:34:27;;;;;;;;;;;;;;;17.98;50.13;98220.41;5357595;32;36082;-61
2023/03/10 15:37:29;;;;;;;;;;;;;;;17.52;51.51;98223.28;5375131;32;35971;-61
2023/03/10 15:40:31;;;;;;;;;;;;;;;16.66;53.78;98227.50;5351537;32;35411;-72
2023/03/10 15:43:33;;;;;;;;;;;;;;;16.75;54.01;98232.78;5368338;32;36112;-72
2023/03/10 15:46:35;;;;;;;;;;;;;;;16.42;54.94;98230.72;5357226;32;35900;-72
2023/03/10 15:49:37;;;;;;;;;;;;;;;17.15;53.32;98233.31;5349613;32;35950;-60
2023/03/10 15:52:44;;;;;;;;;;;;;;;17.32;52.73;98233.28;5367839;32;44343;-62
2023/03/10 15:55:47;;;;;;;;;;;;;;;16.90;53.60;98224.28;5356242;32;34401;-72
2023/03/10 15:58:49;;;;;;;;;;;;;;;16.47;54.97;98226.66;5357569;32;35523;-61